createdAt,value
2018-06-30T00:01:34.289Z,16.37
2018-06-30T00:07:19.249Z,17.87
2018-06-30T00:09:48.011Z,17.50
2018-06-30T00:12:17.006Z,17.43
2018-06-30T00:14:45.682Z,18.00
2018-06-30T00:17:14.570Z,17.00
2018-06-30T00:19:43.374Z,16.40
2018-06-30T00:22:12.193Z,16.60
2018-06-30T00:24:40.802Z,17.50
2018-06-30T00:27:30.443Z,17.27
2018-06-30T00:30:00.217Z,16.60
2018-06-30T00:32:29.258Z,18.00
2018-06-30T00:34:58.003Z,16.93
2018-06-30T00:37:26.697Z,17.20
2018-06-30T00:39:55.462Z,17.70
2018-06-30T00:42:24.095Z,17.97
2018-06-30T00:44:52.768Z,18.23
2018-06-30T00:47:21.491Z,18.43
2018-06-30T00:49:50.124Z,18.40
2018-06-30T00:52:18.877Z,18.90
2018-06-30T00:54:47.495Z,17.83
2018-06-30T00:57:16.270Z,18.17
2018-06-30T00:59:44.949Z,17.60
2018-06-30T01:02:13.589Z,18.13
2018-06-30T01:04:42.225Z,17.67
2018-06-30T01:07:10.966Z,18.10
2018-06-30T01:09:39.686Z,18.97
2018-06-30T01:12:08.329Z,18.60
2018-06-30T01:14:37.019Z,18.60
2018-06-30T01:17:05.698Z,19.30
2018-06-30T01:19:34.410Z,19.67
2018-06-30T01:22:03.066Z,19.30
2018-06-30T01:24:31.718Z,19.53
2018-06-30T01:27:00.434Z,19.93
2018-06-30T01:29:29.010Z,20.60
2018-06-30T01:31:57.707Z,20.90
2018-06-30T01:34:26.361Z,20.13
2018-06-30T01:36:55.011Z,19.50
2018-06-30T01:39:23.788Z,19.80
2018-06-30T01:41:52.458Z,20.30
2018-06-30T01:44:21.209Z,18.60
2018-06-30T01:46:49.857Z,18.23
2018-06-30T01:49:18.534Z,19.20
2018-06-30T01:51:53.562Z,20.43
2018-06-30T01:54:22.311Z,23.70
2018-06-30T01:56:51.026Z,25.00
2018-06-30T01:59:19.699Z,23.77
2018-06-30T02:01:48.455Z,24.93
2018-06-30T02:04:17.228Z,25.63
2018-06-30T02:06:45.930Z,26.03
2018-06-30T02:09:14.601Z,26.70
2018-06-30T02:11:43.259Z,25.50
2018-06-30T02:14:11.943Z,24.77
2018-06-30T02:16:40.625Z,24.37
2018-06-30T02:19:09.347Z,23.50
2018-06-30T02:21:38.172Z,22.17
2018-06-30T02:24:06.490Z,21.80
2018-06-30T02:26:35.134Z,21.80
2018-06-30T02:29:03.861Z,20.90
2018-06-30T02:31:32.585Z,21.60
2018-06-30T02:34:00.863Z,20.30
2018-06-30T02:36:29.529Z,20.33
2018-06-30T02:38:58.288Z,19.50
2018-06-30T02:41:27.040Z,19.50
2018-06-30T02:43:55.715Z,18.40
2018-06-30T02:46:24.412Z,19.20
2018-06-30T02:48:53.155Z,19.60
2018-06-30T02:51:21.937Z,19.20
2018-06-30T02:53:50.666Z,19.77
2018-06-30T02:56:19.448Z,20.43
2018-06-30T02:58:48.126Z,20.07
2018-06-30T03:01:16.821Z,19.60
2018-06-30T03:03:45.671Z,19.53
2018-06-30T03:06:14.370Z,20.87
2018-06-30T03:08:42.976Z,21.77
2018-06-30T03:11:11.709Z,24.30
2018-06-30T03:13:40.422Z,24.37
2018-06-30T03:16:09.133Z,24.57
2018-06-30T03:18:37.832Z,24.30
2018-06-30T03:21:06.536Z,23.00
2018-06-30T03:23:35.221Z,22.30
2018-06-30T03:26:03.915Z,20.57
2018-06-30T03:28:32.612Z,20.67
2018-06-30T03:31:01.371Z,20.10
2018-06-30T03:33:30.053Z,20.00
2018-06-30T03:35:58.711Z,21.07
2018-06-30T03:38:27.026Z,21.40
2018-06-30T03:40:55.741Z,19.20
2018-06-30T03:43:24.413Z,19.53
2018-06-30T03:45:53.143Z,21.63
2018-06-30T03:48:21.895Z,21.70
2018-06-30T03:50:50.589Z,21.60
2018-06-30T03:53:19.318Z,24.33
2018-06-30T03:55:48.083Z,22.80
2018-06-30T03:58:16.839Z,24.43
2018-06-30T04:00:45.473Z,23.20
2018-06-30T04:03:14.053Z,24.23
2018-06-30T04:05:42.632Z,22.73
2018-06-30T04:08:11.279Z,23.07
2018-06-30T04:10:40.019Z,20.10
2018-06-30T04:13:08.691Z,20.60
2018-06-30T04:15:37.387Z,19.43
2018-06-30T04:18:06.140Z,18.43
2018-06-30T04:20:34.856Z,18.13
2018-06-30T04:23:03.506Z,18.70
2018-06-30T04:25:32.358Z,17.10
2018-06-30T04:28:00.946Z,17.57
2018-06-30T04:30:29.617Z,18.10
2018-06-30T04:32:58.286Z,17.03
2018-06-30T04:35:26.995Z,17.13
2018-06-30T04:37:55.693Z,16.23
2018-06-30T04:40:24.331Z,15.73
2018-06-30T04:42:52.970Z,17.10
2018-06-30T04:45:21.698Z,17.50
2018-06-30T04:47:50.368Z,15.20
2018-06-30T04:50:19.026Z,16.17
2018-06-30T04:52:47.678Z,15.43
2018-06-30T04:55:16.326Z,15.80
2018-06-30T04:57:45.031Z,13.83
2018-06-30T05:00:13.761Z,14.93
2018-06-30T05:02:42.539Z,14.70
2018-06-30T05:05:11.672Z,15.40
2018-06-30T05:19:24.698Z,16.90
2018-06-30T05:27:40.381Z,15.40
2018-06-30T05:30:09.076Z,14.67
2018-06-30T05:32:37.791Z,14.87
2018-06-30T05:35:06.415Z,14.77
2018-06-30T05:37:35.132Z,15.60
2018-06-30T05:40:03.775Z,16.80
2018-06-30T05:42:32.538Z,16.33
2018-06-30T05:45:09.478Z,16.50
2018-06-30T05:47:38.180Z,15.83
2018-06-30T05:50:08.939Z,15.57
2018-06-30T05:52:37.644Z,16.10
2018-06-30T05:55:06.439Z,16.00
2018-06-30T05:57:35.193Z,16.57
2018-06-30T06:00:04.178Z,14.97
2018-06-30T06:02:32.930Z,14.57
2018-06-30T06:05:01.695Z,14.87
2018-06-30T06:07:34.305Z,14.60
2018-06-30T06:10:03.139Z,14.50
2018-06-30T06:12:31.838Z,14.80
2018-06-30T06:15:00.606Z,13.90
2018-06-30T06:17:29.326Z,15.17
2018-06-30T06:19:57.988Z,14.40
2018-06-30T06:22:36.405Z,13.10
2018-06-30T06:25:05.290Z,14.07
2018-06-30T06:27:34.149Z,13.33
2018-06-30T06:30:02.868Z,13.80
2018-06-30T06:32:31.614Z,14.10
2018-06-30T06:35:00.340Z,14.57
2018-06-30T06:37:29.073Z,14.50
2018-06-30T06:39:58.240Z,14.50
2018-06-30T06:42:26.965Z,14.83
2018-06-30T06:44:55.598Z,15.27
2018-06-30T06:47:24.271Z,15.40
2018-06-30T06:49:52.992Z,15.00
2018-06-30T06:52:21.732Z,15.27
2018-06-30T06:54:50.464Z,15.73
2018-06-30T06:57:19.220Z,15.40
2018-06-30T06:59:47.851Z,14.70
2018-06-30T07:02:16.503Z,13.80
2018-06-30T07:04:45.115Z,15.27
2018-06-30T07:07:13.801Z,15.30
2018-06-30T07:09:42.517Z,15.97
2018-06-30T07:12:11.142Z,15.67
2018-06-30T07:14:39.785Z,15.53
2018-06-30T07:17:08.457Z,15.87
2018-06-30T07:19:37.103Z,15.17
2018-06-30T07:22:05.811Z,15.70
2018-06-30T07:24:34.584Z,15.20
2018-06-30T07:27:03.383Z,14.73
2018-06-30T07:29:31.989Z,14.30
2018-06-30T07:32:00.710Z,13.47
2018-06-30T07:34:29.415Z,14.60
2018-06-30T07:40:03.430Z,11.00
2018-06-30T07:42:32.143Z,11.40
2018-06-30T07:45:00.861Z,10.33
2018-06-30T07:47:29.506Z,9.53
2018-06-30T07:49:58.206Z,9.43
2018-06-30T07:52:26.942Z,9.60
2018-06-30T07:54:55.782Z,8.73
2018-06-30T07:57:24.448Z,9.23
2018-06-30T07:59:53.118Z,9.57
2018-06-30T08:02:21.822Z,9.10
2018-06-30T08:04:50.529Z,8.17
2018-06-30T08:07:19.182Z,8.20
2018-06-30T08:09:47.879Z,7.57
2018-06-30T08:12:16.589Z,7.80
2018-06-30T08:14:45.344Z,8.10
2018-06-30T08:17:14.041Z,7.93
2018-06-30T08:19:42.747Z,7.80
2018-06-30T08:22:11.474Z,7.70
2018-06-30T08:24:40.203Z,7.17
2018-06-30T08:27:08.915Z,6.17
2018-06-30T08:29:37.749Z,6.20
2018-06-30T08:32:06.385Z,6.60
2018-06-30T08:34:35.097Z,6.73
2018-06-30T08:37:03.748Z,5.87
2018-06-30T08:39:32.478Z,6.10
2018-06-30T08:42:01.135Z,6.57
2018-06-30T08:44:29.896Z,5.83
2018-06-30T08:46:58.551Z,6.97
2018-06-30T08:49:27.271Z,5.70
2018-06-30T08:51:55.965Z,5.33
2018-06-30T08:54:24.656Z,6.20
2018-06-30T08:56:53.333Z,5.40
2018-06-30T08:59:22.005Z,4.57
2018-06-30T09:01:50.683Z,4.67
2018-06-30T09:04:19.365Z,4.80
2018-06-30T09:06:48.095Z,4.97
2018-06-30T09:09:16.742Z,5.23
2018-06-30T09:11:45.437Z,5.40
2018-06-30T09:14:14.103Z,5.10
2018-06-30T09:16:42.719Z,5.30
2018-06-30T09:19:11.290Z,5.00
2018-06-30T09:21:39.933Z,5.13
2018-06-30T09:24:08.922Z,5.60
2018-06-30T09:26:37.557Z,4.40
2018-06-30T09:29:06.411Z,4.70
2018-06-30T09:31:35.138Z,4.30
2018-06-30T09:34:04.392Z,4.40
2018-06-30T09:36:33.050Z,4.20
2018-06-30T09:39:01.738Z,3.83
2018-06-30T09:41:30.336Z,3.97
2018-06-30T09:43:58.968Z,3.97
2018-06-30T09:46:27.754Z,3.50
2018-06-30T09:49:14.801Z,3.80
2018-06-30T09:51:43.442Z,3.70
2018-06-30T09:54:12.140Z,3.50
2018-06-30T09:56:40.790Z,3.20
2018-06-30T09:59:09.503Z,3.87
2018-06-30T10:01:38.165Z,3.67
2018-06-30T10:04:06.816Z,3.30
2018-06-30T10:06:35.435Z,3.57
2018-06-30T10:09:06.271Z,3.10
2018-06-30T10:17:37.409Z,2.70
2018-06-30T10:20:13.746Z,2.70
2018-06-30T10:22:42.871Z,2.80
2018-06-30T10:25:12.547Z,2.60
2018-06-30T10:27:41.205Z,2.60
2018-06-30T10:30:09.827Z,3.00
2018-06-30T10:32:38.460Z,2.80
2018-06-30T10:35:07.092Z,2.77
2018-06-30T10:37:35.747Z,2.47
2018-06-30T10:40:04.772Z,2.87
2018-06-30T10:42:33.450Z,2.70
2018-06-30T10:47:59.062Z,2.20
2018-06-30T10:50:31.134Z,1.50
2018-06-30T10:52:59.814Z,1.83
2018-06-30T10:55:28.547Z,2.00
2018-06-30T11:01:06.966Z,2.10
2018-06-30T11:09:46.362Z,2.30
2018-06-30T11:12:15.068Z,2.50
2018-06-30T11:14:43.705Z,2.13
2018-06-30T11:17:12.398Z,2.53
2018-06-30T11:19:41.062Z,2.40
2018-06-30T11:22:09.659Z,2.33
2018-06-30T11:24:38.336Z,2.57
2018-06-30T11:27:06.544Z,2.70
2018-06-30T11:29:35.246Z,2.40
2018-06-30T11:32:03.759Z,2.47
2018-06-30T11:34:32.349Z,2.30
2018-06-30T11:37:00.887Z,2.70
2018-06-30T11:39:29.533Z,2.27
2018-06-30T11:41:58.231Z,2.67
2018-06-30T11:44:26.848Z,3.00
2018-06-30T11:46:57.598Z,2.30
2018-06-30T11:49:26.323Z,2.50
2018-06-30T11:51:54.969Z,2.50
2018-06-30T11:54:23.718Z,2.50
2018-06-30T11:56:52.380Z,2.30
2018-06-30T11:59:21.021Z,2.40
2018-06-30T12:01:49.590Z,2.30
2018-06-30T12:04:18.167Z,2.67
2018-06-30T12:06:46.819Z,2.17
2018-06-30T12:09:15.444Z,2.50
2018-06-30T12:11:44.001Z,2.30
2018-06-30T12:14:12.601Z,2.33
2018-06-30T12:16:41.289Z,2.30
2018-06-30T12:19:09.815Z,2.40
2018-06-30T12:21:38.387Z,2.40
2018-06-30T12:24:07.010Z,3.70
2018-06-30T12:26:35.654Z,3.63
2018-06-30T12:29:04.371Z,3.23
2018-06-30T12:31:33.011Z,3.27
2018-06-30T12:34:01.631Z,3.37
2018-06-30T12:36:30.299Z,3.70
2018-06-30T12:38:58.908Z,3.83
2018-06-30T12:41:27.098Z,3.63
2018-06-30T12:43:55.757Z,3.50
2018-06-30T12:46:24.422Z,3.57
2018-06-30T12:48:53.079Z,3.50
2018-06-30T12:51:21.743Z,3.50
2018-06-30T12:53:55.490Z,3.50
2018-06-30T12:59:28.414Z,3.20
2018-06-30T13:01:57.136Z,3.10
2018-06-30T13:04:25.791Z,3.33
2018-06-30T13:06:54.357Z,3.30
2018-06-30T13:09:23.010Z,3.20
2018-06-30T13:11:51.878Z,3.23
2018-06-30T13:14:20.556Z,3.87
2018-06-30T13:16:49.283Z,3.10
2018-06-30T13:19:17.941Z,3.40
2018-06-30T13:21:46.591Z,3.27
2018-06-30T13:24:15.302Z,3.80
2018-06-30T13:26:43.943Z,3.27
2018-06-30T13:29:12.655Z,3.50
2018-06-30T13:31:58.663Z,3.47
2018-06-30T13:34:27.417Z,3.47
2018-06-30T13:36:56.033Z,3.97
2018-06-30T13:39:25.851Z,4.07
2018-06-30T13:41:54.472Z,3.37
2018-06-30T13:47:15.870Z,3.33
2018-06-30T13:49:44.519Z,2.90
2018-06-30T13:52:13.167Z,3.30
2018-06-30T13:54:41.848Z,2.77
2018-06-30T13:57:10.489Z,2.90
2018-06-30T13:59:39.066Z,3.60
2018-06-30T14:02:08.039Z,2.97
2018-06-30T14:04:36.628Z,3.33
2018-06-30T14:07:05.419Z,3.40
2018-06-30T14:09:34.000Z,3.53
2018-06-30T14:12:02.696Z,3.40
2018-06-30T14:14:31.316Z,3.10
2018-06-30T14:16:59.976Z,3.20
2018-06-30T14:19:28.732Z,3.20
2018-06-30T14:21:57.457Z,11.70
2018-06-30T14:24:26.134Z,2.93
2018-06-30T14:26:54.818Z,3.00
2018-06-30T14:29:23.461Z,3.07
2018-06-30T14:31:52.085Z,2.83
2018-06-30T14:34:20.767Z,3.40
2018-06-30T14:36:49.454Z,2.87
2018-06-30T14:39:18.159Z,3.13
2018-06-30T14:41:46.919Z,2.83
2018-06-30T14:44:15.702Z,3.43
2018-06-30T14:46:44.426Z,2.90
2018-06-30T14:49:24.681Z,3.30
2018-06-30T14:51:53.620Z,3.33
2018-06-30T14:54:22.308Z,3.10
2018-06-30T14:56:50.996Z,3.03
2018-06-30T14:59:20.103Z,2.90
2018-06-30T15:01:49.298Z,2.93
2018-06-30T15:04:18.013Z,2.90
2018-06-30T15:06:47.219Z,3.00
2018-06-30T15:09:16.622Z,3.37
2018-06-30T15:11:46.035Z,3.10
2018-06-30T15:14:15.365Z,2.80
2018-06-30T15:16:44.018Z,3.07
2018-06-30T15:22:24.739Z,2.80
2018-06-30T15:24:53.473Z,2.87
2018-06-30T15:27:22.135Z,3.20
2018-06-30T15:29:50.852Z,2.97
2018-06-30T15:32:19.539Z,3.00
2018-06-30T15:34:48.371Z,2.57
2018-06-30T15:37:21.627Z,2.90
2018-06-30T15:39:52.369Z,2.83
2018-06-30T15:42:21.045Z,3.03
2018-06-30T15:48:02.386Z,2.87
2018-06-30T15:50:31.139Z,2.77
2018-06-30T15:52:59.900Z,2.80
2018-06-30T15:55:28.624Z,2.60
2018-06-30T15:57:57.332Z,2.77
2018-06-30T16:00:25.939Z,3.27
2018-06-30T16:02:54.603Z,2.80
2018-06-30T16:05:23.289Z,2.90
2018-06-30T16:07:51.912Z,8.07
2018-06-30T16:10:20.191Z,4.87
2018-06-30T16:12:48.793Z,2.97
2018-06-30T16:15:17.454Z,3.07
2018-06-30T16:17:46.046Z,2.90
2018-06-30T16:20:14.733Z,3.30
2018-06-30T16:22:43.431Z,3.00
2018-06-30T16:25:12.059Z,3.20
2018-06-30T16:27:40.704Z,3.30
2018-06-30T16:30:09.750Z,3.00
2018-06-30T16:32:38.450Z,3.30
2018-06-30T16:35:07.167Z,3.13
2018-06-30T16:37:35.952Z,4.17
2018-06-30T16:40:04.807Z,3.40
2018-06-30T16:42:33.434Z,3.10
2018-06-30T16:45:02.129Z,2.90
2018-06-30T16:47:30.925Z,3.20
2018-06-30T16:49:59.762Z,3.07
2018-06-30T16:52:28.475Z,3.07
2018-06-30T16:54:57.201Z,3.10
2018-06-30T16:57:25.774Z,3.50
2018-06-30T16:59:54.412Z,3.33
2018-06-30T17:02:22.699Z,3.90
2018-06-30T17:04:51.375Z,3.90
2018-06-30T17:07:19.677Z,3.93
2018-06-30T17:09:48.389Z,3.80
2018-06-30T17:12:17.114Z,3.80
2018-06-30T17:17:40.929Z,4.10
2018-06-30T17:20:09.810Z,4.30
2018-06-30T17:22:38.458Z,4.63
2018-06-30T17:25:07.220Z,4.20
2018-06-30T17:27:35.914Z,4.83
2018-06-30T17:30:04.736Z,4.50
2018-06-30T17:32:33.418Z,4.60
2018-06-30T17:35:02.154Z,5.00
2018-06-30T17:40:26.156Z,4.70
2018-06-30T17:42:54.891Z,4.97
2018-06-30T17:45:23.726Z,4.70
2018-06-30T17:47:52.570Z,4.93
2018-06-30T17:50:21.229Z,5.03
2018-06-30T17:52:50.034Z,6.50
2018-06-30T17:55:18.795Z,5.90
2018-06-30T17:57:55.398Z,5.80
2018-06-30T18:00:24.155Z,6.97
2018-06-30T18:02:52.896Z,5.93
2018-06-30T18:05:21.667Z,5.60
2018-06-30T18:08:01.350Z,5.30
2018-06-30T18:10:30.093Z,5.10
2018-06-30T18:13:04.736Z,5.80
2018-06-30T18:15:33.474Z,5.40
2018-06-30T18:18:02.270Z,5.63
2018-06-30T18:20:30.978Z,5.93
2018-06-30T18:23:17.710Z,6.17
2018-06-30T18:25:46.468Z,5.33
2018-06-30T18:28:15.153Z,5.53
2018-06-30T18:30:43.890Z,5.83
2018-06-30T18:33:12.562Z,5.00
2018-06-30T18:35:41.240Z,5.90
2018-06-30T18:38:10.436Z,5.80
2018-06-30T18:40:39.200Z,5.70
2018-06-30T18:43:07.963Z,6.03
2018-06-30T18:48:31.757Z,6.10
2018-06-30T18:51:00.446Z,5.90
2018-06-30T18:53:33.315Z,6.07
2018-06-30T18:56:01.966Z,5.40
2018-06-30T18:58:30.627Z,6.13
2018-06-30T19:00:58.905Z,5.70
2018-06-30T19:03:27.704Z,6.10
2018-06-30T19:05:58.604Z,5.67
2018-06-30T19:08:27.371Z,5.70
2018-06-30T19:10:56.076Z,6.07
2018-06-30T19:13:24.632Z,6.20
2018-06-30T19:15:53.440Z,5.50
2018-06-30T19:18:22.260Z,6.30
2018-06-30T19:20:56.919Z,6.43
2018-06-30T19:23:25.658Z,6.20
2018-06-30T19:25:54.512Z,6.20
2018-06-30T19:31:18.568Z,5.60
2018-06-30T19:34:08.030Z,6.63
2018-06-30T19:36:36.748Z,6.67
2018-06-30T19:42:05.947Z,6.50
2018-06-30T19:44:34.577Z,6.03
2018-06-30T19:47:03.316Z,6.60
2018-06-30T19:49:32.049Z,6.40
2018-06-30T19:52:00.833Z,6.23
2018-06-30T19:54:30.168Z,6.60
2018-06-30T19:56:58.899Z,6.87
2018-06-30T19:59:27.554Z,5.93
2018-06-30T20:01:56.389Z,6.67
2018-06-30T20:04:25.090Z,6.30
2018-06-30T20:06:53.828Z,7.30
2018-06-30T20:09:22.190Z,6.97
2018-06-30T20:11:50.945Z,7.00
2018-06-30T20:14:19.857Z,6.70
2018-06-30T20:16:48.603Z,7.00
2018-06-30T20:19:17.615Z,6.73
2018-06-30T20:21:47.103Z,7.00
2018-06-30T20:24:15.923Z,7.20
2018-06-30T20:26:44.648Z,7.50
2018-06-30T20:29:13.298Z,7.13
2018-06-30T20:31:41.902Z,8.03
2018-06-30T20:34:10.662Z,7.10
2018-06-30T20:36:41.489Z,7.40
2018-06-30T20:39:10.894Z,7.43
2018-06-30T20:41:39.746Z,7.30
2018-06-30T20:44:09.300Z,7.13
2018-06-30T20:46:37.944Z,8.07
2018-06-30T20:49:06.731Z,7.67
2018-06-30T20:51:35.350Z,7.57
2018-06-30T20:54:04.005Z,7.87
2018-06-30T20:56:32.761Z,7.93
2018-06-30T20:59:01.373Z,7.17
2018-06-30T21:01:30.047Z,7.80
2018-06-30T21:03:58.712Z,8.20
2018-06-30T21:06:27.343Z,7.90
2018-06-30T21:08:56.006Z,7.80
2018-06-30T21:11:24.710Z,7.70
2018-06-30T21:13:53.653Z,7.40
2018-06-30T21:16:22.399Z,7.37
2018-06-30T21:18:51.123Z,7.87
2018-06-30T21:21:19.745Z,7.80
2018-06-30T21:23:48.414Z,7.43
2018-06-30T21:26:17.065Z,8.40
2018-06-30T21:28:45.819Z,8.10
2018-06-30T21:31:14.510Z,7.93
2018-06-30T21:33:43.195Z,8.37
2018-06-30T21:36:11.883Z,7.73
2018-06-30T21:38:40.563Z,8.50
2018-06-30T21:41:09.345Z,7.90
2018-06-30T21:43:38.101Z,8.37
2018-06-30T21:46:07.135Z,8.77
2018-06-30T21:48:36.218Z,8.63
2018-06-30T21:51:04.878Z,8.30
2018-06-30T21:53:33.258Z,8.50
2018-06-30T21:56:01.926Z,9.10
2018-06-30T21:58:30.663Z,8.97
2018-06-30T22:01:04.714Z,9.50
2018-06-30T22:03:33.341Z,9.30
2018-06-30T22:06:01.998Z,9.30
2018-06-30T22:08:30.713Z,9.37
2018-06-30T22:10:59.554Z,9.30
2018-06-30T22:13:28.094Z,9.80
2018-06-30T22:15:56.934Z,9.03
2018-06-30T22:18:25.725Z,9.87
2018-06-30T22:20:54.320Z,8.83
2018-06-30T22:23:23.914Z,8.70
2018-06-30T22:25:52.512Z,9.07
2018-06-30T22:28:21.285Z,9.47
2018-06-30T22:30:50.097Z,8.90
2018-06-30T22:33:18.834Z,8.37
2018-06-30T22:35:47.478Z,8.10
2018-06-30T22:38:16.171Z,7.70
2018-06-30T22:40:44.781Z,8.00
2018-06-30T22:43:13.529Z,7.57
2018-06-30T22:45:42.264Z,7.10
2018-06-30T22:48:10.920Z,7.10
2018-06-30T22:50:39.672Z,7.80
2018-06-30T22:53:08.435Z,7.70
2018-06-30T22:55:37.227Z,7.17
2018-06-30T22:58:06.039Z,7.57
2018-06-30T23:00:34.741Z,6.97
2018-06-30T23:03:08.960Z,7.27
2018-06-30T23:05:37.931Z,6.83
2018-06-30T23:08:06.693Z,6.80
2018-06-30T23:10:35.401Z,6.40
2018-06-30T23:13:04.147Z,6.87
2018-06-30T23:15:32.830Z,6.10
2018-06-30T23:18:01.501Z,6.20
2018-06-30T23:20:30.349Z,5.40
2018-06-30T23:23:02.551Z,5.50
2018-06-30T23:25:32.196Z,5.20
2018-06-30T23:28:02.133Z,5.03
2018-06-30T23:30:32.028Z,5.33
2018-06-30T23:33:01.348Z,5.30
2018-06-30T23:35:31.136Z,4.67
2018-06-30T23:38:00.585Z,4.90
2018-06-30T23:40:30.149Z,4.60
2018-06-30T23:42:58.795Z,4.90
2018-06-30T23:45:27.605Z,4.37
2018-06-30T23:47:56.254Z,4.23
2018-06-30T23:50:24.906Z,4.40
2018-06-30T23:52:54.171Z,3.97
2018-06-30T23:55:22.946Z,4.60
2018-06-30T23:57:51.586Z,4.23
